createdAt,value
2022-12-03T00:02:05.343Z,23.50
2022-12-03T00:05:08.877Z,22.63
2022-12-03T00:08:12.539Z,24.90
2022-12-03T00:11:15.295Z,31.03
2022-12-03T00:14:17.995Z,29.07
2022-12-03T00:17:28.206Z,31.50
2022-12-03T00:20:30.949Z,27.73
2022-12-03T00:23:37.195Z,27.37
2022-12-03T00:26:44.370Z,31.40
2022-12-03T00:29:47.069Z,32.40
2022-12-03T00:32:51.086Z,32.70
2022-12-03T00:35:56.847Z,30.70
2022-12-03T00:38:59.524Z,15.50
2022-12-03T00:42:02.203Z,31.87
2022-12-03T00:45:05.662Z,26.20
2022-12-03T00:48:09.780Z,30.27
2022-12-03T00:51:12.465Z,30.70
2022-12-03T00:54:18.130Z,32.40
2022-12-03T00:57:20.823Z,26.70
2022-12-03T01:00:25.248Z,27.23
2022-12-03T01:03:29.484Z,31.20
2022-12-03T01:06:32.209Z,34.43
2022-12-03T01:09:34.966Z,35.10
2022-12-03T01:12:37.752Z,23.83
2022-12-03T01:15:40.577Z,26.53
2022-12-03T01:18:46.198Z,22.33
2022-12-03T01:21:51.261Z,36.33
2022-12-03T01:24:54.143Z,20.60
2022-12-03T01:27:57.257Z,35.13
2022-12-03T01:31:17.381Z,37.43
2022-12-03T01:34:21.423Z,34.67
2022-12-03T01:37:26.697Z,26.60
2022-12-03T01:40:29.365Z,31.23
2022-12-03T01:43:32.303Z,19.97
2022-12-03T01:46:40.403Z,36.07
2022-12-03T01:49:47.904Z,40.10
2022-12-03T01:52:50.815Z,33.37
2022-12-03T01:55:53.587Z,36.47
2022-12-03T01:58:56.509Z,28.97
2022-12-03T02:01:59.347Z,36.80
2022-12-03T02:05:08.531Z,36.00
2022-12-03T02:08:29.612Z,37.87
2022-12-03T02:11:36.617Z,36.30
2022-12-03T02:14:39.587Z,31.83
2022-12-03T02:17:43.705Z,37.97
2022-12-03T02:20:54.239Z,34.67
2022-12-03T02:24:06.007Z,36.40
2022-12-03T02:27:10.277Z,35.40
2022-12-03T02:30:15.470Z,35.93
2022-12-03T02:33:18.318Z,33.13
2022-12-03T02:36:21.746Z,22.27
2022-12-03T02:39:30.159Z,35.73
2022-12-03T02:42:37.307Z,39.50
2022-12-03T02:45:44.340Z,30.57
2022-12-03T02:48:47.113Z,35.77
2022-12-03T02:51:49.990Z,33.67
2022-12-03T02:54:53.376Z,22.13
2022-12-03T02:57:58.267Z,34.23
2022-12-03T03:01:02.948Z,36.30
2022-12-03T03:04:06.889Z,31.10
2022-12-03T03:07:10.497Z,32.60
2022-12-03T03:10:19.511Z,33.10
2022-12-03T03:13:24.302Z,37.23
2022-12-03T03:16:27.998Z,32.30
2022-12-03T03:19:30.988Z,34.73
2022-12-03T03:22:34.431Z,36.13
2022-12-03T03:25:37.919Z,28.07
2022-12-03T03:28:51.087Z,33.50
2022-12-03T03:31:54.075Z,33.43
2022-12-03T03:34:57.513Z,32.83
2022-12-03T03:38:00.958Z,34.57
2022-12-03T03:41:06.851Z,32.60
2022-12-03T03:44:11.376Z,36.20
2022-12-03T03:47:14.509Z,31.70
2022-12-03T03:50:18.273Z,28.80
2022-12-03T03:53:22.595Z,32.80
2022-12-03T03:56:25.419Z,32.27
2022-12-03T03:59:29.902Z,35.23
2022-12-03T04:02:33.601Z,33.53
2022-12-03T04:05:36.501Z,30.10
2022-12-03T04:08:39.263Z,30.27
2022-12-03T04:11:59.888Z,34.17
2022-12-03T04:15:04.356Z,30.93
2022-12-03T04:18:30.796Z,31.63
2022-12-03T04:21:50.890Z,35.60
2022-12-03T04:25:16.867Z,35.57
2022-12-03T04:28:37.101Z,38.30
2022-12-03T04:31:59.071Z,33.53
2022-12-03T04:35:19.463Z,30.97
2022-12-03T04:38:22.285Z,29.87
2022-12-03T04:41:25.030Z,33.37
2022-12-03T04:44:39.738Z,32.97
2022-12-03T04:47:43.790Z,27.97
2022-12-03T04:50:46.584Z,35.40
2022-12-03T04:53:50.124Z,23.73
2022-12-03T04:56:52.932Z,28.40
2022-12-03T04:59:55.634Z,34.50
2022-12-03T05:02:59.946Z,37.77
2022-12-03T05:06:04.077Z,42.30
2022-12-03T05:09:06.893Z,35.43
2022-12-03T05:12:09.659Z,34.80
2022-12-03T05:15:12.554Z,28.57
2022-12-03T05:18:20.204Z,40.53
2022-12-03T05:21:22.972Z,34.17
2022-12-03T05:24:28.032Z,27.17
2022-12-03T05:27:30.809Z,33.57
2022-12-03T05:30:33.891Z,31.83
2022-12-03T05:33:43.735Z,32.93
2022-12-03T05:36:47.076Z,35.10
2022-12-03T05:39:49.814Z,33.63
2022-12-03T05:43:02.842Z,30.60
2022-12-03T05:46:05.636Z,28.63
2022-12-03T05:49:09.827Z,31.57
2022-12-03T05:52:13.835Z,31.43
2022-12-03T05:55:17.271Z,29.10
2022-12-03T05:58:20.225Z,31.57
2022-12-03T06:01:22.954Z,28.27
2022-12-03T06:04:27.167Z,19.53
2022-12-03T06:07:32.929Z,26.70
2022-12-03T06:10:35.721Z,33.13
2022-12-03T06:13:38.445Z,26.97
2022-12-03T06:16:41.238Z,32.47
2022-12-03T06:19:45.397Z,33.50
2022-12-03T06:22:48.864Z,26.37
2022-12-03T06:25:51.597Z,29.77
2022-12-03T06:28:57.760Z,26.80
2022-12-03T06:32:00.500Z,29.03
2022-12-03T06:35:05.451Z,29.70
2022-12-03T06:38:08.203Z,21.37
2022-12-03T06:41:10.884Z,30.80
2022-12-03T06:44:13.907Z,29.77
2022-12-03T06:47:17.209Z,30.53
2022-12-03T06:50:21.335Z,25.10
2022-12-03T06:53:26.174Z,38.90
2022-12-03T06:56:35.084Z,31.07
2022-12-03T06:59:39.613Z,27.67
2022-12-03T07:02:44.709Z,26.37
2022-12-03T07:05:49.236Z,32.97
2022-12-03T07:08:51.953Z,29.17
2022-12-03T07:11:54.692Z,36.53
2022-12-03T07:14:57.433Z,32.07
2022-12-03T07:18:00.171Z,40.03
2022-12-03T07:21:07.539Z,37.40
2022-12-03T07:24:11.208Z,33.03
2022-12-03T07:27:13.942Z,28.00
2022-12-03T07:30:17.392Z,41.13
2022-12-03T07:33:20.081Z,30.13
2022-12-03T07:36:24.170Z,32.10
2022-12-03T07:39:26.993Z,36.30
2022-12-03T07:42:29.748Z,35.03
2022-12-03T07:45:32.501Z,45.57
2022-12-03T07:48:35.421Z,34.43
2022-12-03T07:51:39.531Z,39.63
2022-12-03T07:54:42.435Z,38.47
2022-12-03T07:57:45.944Z,39.87
2022-12-03T08:00:50.542Z,27.17
2022-12-03T08:03:53.263Z,36.33
2022-12-03T08:06:57.676Z,37.67
2022-12-03T08:10:00.457Z,27.83
2022-12-03T08:13:04.057Z,32.47
2022-12-03T08:16:16.421Z,31.83
2022-12-03T08:19:20.260Z,35.00
2022-12-03T08:22:24.359Z,37.13
2022-12-03T08:25:29.417Z,35.60
2022-12-03T08:28:35.233Z,34.43
2022-12-03T08:31:38.132Z,34.53
2022-12-03T08:34:42.792Z,39.37
2022-12-03T08:37:46.961Z,30.70
2022-12-03T08:40:51.444Z,32.00
2022-12-03T08:43:54.196Z,34.53
2022-12-03T08:47:03.385Z,35.67
2022-12-03T08:50:27.352Z,39.40
2022-12-03T08:53:35.333Z,39.93
2022-12-03T08:56:38.216Z,37.17
2022-12-03T08:59:45.379Z,44.43
2022-12-03T09:02:51.222Z,38.63
2022-12-03T09:05:57.152Z,42.40
2022-12-03T09:09:06.598Z,37.97
2022-12-03T09:12:09.763Z,37.37
2022-12-03T09:15:12.645Z,43.67
2022-12-03T09:18:18.463Z,47.17
2022-12-03T09:21:21.319Z,40.13
2022-12-03T09:24:25.473Z,42.43
2022-12-03T09:27:28.354Z,37.17
2022-12-03T09:30:31.996Z,34.60
2022-12-03T09:33:35.145Z,43.20
2022-12-03T09:36:56.170Z,33.17
2022-12-03T09:40:00.412Z,35.23
2022-12-03T09:43:03.921Z,34.17
2022-12-03T09:46:07.492Z,37.67
2022-12-03T09:49:16.106Z,33.00
2022-12-03T09:52:24.431Z,34.67
2022-12-03T09:55:30.119Z,32.43
2022-12-03T09:58:34.923Z,32.77
2022-12-03T10:01:43.062Z,39.53
2022-12-03T10:04:45.979Z,30.57
2022-12-03T10:07:53.555Z,38.33
2022-12-03T10:10:57.700Z,35.20
2022-12-03T10:14:00.380Z,39.07
2022-12-03T10:17:05.130Z,35.93
2022-12-03T10:20:11.735Z,35.43
2022-12-03T10:23:22.159Z,35.33
2022-12-03T10:26:39.835Z,42.37
2022-12-03T10:29:42.714Z,40.70
2022-12-03T10:32:50.817Z,37.80
2022-12-03T10:35:55.614Z,40.77
2022-12-03T10:39:13.198Z,36.20
2022-12-03T10:42:17.297Z,51.10
2022-12-03T10:45:22.587Z,39.57
2022-12-03T10:48:27.454Z,30.70
2022-12-03T10:51:30.233Z,37.70
2022-12-03T10:54:36.196Z,41.53
2022-12-03T10:57:45.953Z,43.00
2022-12-03T11:00:50.124Z,40.20
2022-12-03T11:03:54.932Z,39.83
2022-12-03T11:06:57.654Z,40.33
2022-12-03T11:10:02.999Z,41.60
2022-12-03T11:13:41.996Z,42.73
2022-12-03T11:17:10.087Z,38.30
2022-12-03T11:20:29.388Z,42.30
2022-12-03T11:24:28.869Z,42.60
2022-12-03T11:27:31.742Z,74.57
2022-12-03T11:31:01.212Z,44.27
2022-12-03T11:34:42.143Z,52.13
2022-12-03T11:37:44.969Z,50.13
2022-12-03T11:41:08.777Z,46.03
2022-12-03T11:44:31.244Z,49.83
2022-12-03T11:47:38.088Z,42.17
2022-12-03T11:50:44.008Z,45.93
2022-12-03T11:53:47.317Z,38.63
2022-12-03T11:56:51.504Z,40.17
2022-12-03T12:00:02.805Z,41.63
2022-12-03T12:03:05.590Z,42.23
2022-12-03T12:06:11.480Z,41.03
2022-12-03T12:09:14.179Z,40.97
2022-12-03T12:12:30.536Z,42.67
2022-12-03T12:15:45.142Z,40.90
2022-12-03T12:18:53.680Z,41.47
2022-12-03T12:22:14.211Z,40.43
2022-12-03T12:25:37.271Z,40.53
2022-12-03T12:28:40.402Z,40.97
2022-12-03T12:31:43.230Z,42.87
2022-12-03T12:34:47.644Z,42.97
2022-12-03T12:37:59.046Z,37.07
2022-12-03T12:41:07.792Z,40.03
2022-12-03T12:44:11.633Z,43.57
2022-12-03T12:47:14.425Z,42.50
2022-12-03T12:50:18.785Z,45.07
2022-12-03T12:53:30.007Z,36.63
2022-12-03T12:56:33.669Z,30.97
2022-12-03T12:59:36.696Z,32.37
2022-12-03T13:02:45.823Z,40.87
2022-12-03T13:05:50.678Z,33.07
2022-12-03T13:08:55.803Z,34.73
2022-12-03T13:12:00.464Z,35.27
2022-12-03T13:15:11.081Z,45.23
2022-12-03T13:18:27.242Z,37.50
2022-12-03T13:21:38.748Z,36.97
2022-12-03T13:24:45.414Z,41.93
2022-12-03T13:27:48.157Z,29.83
2022-12-03T13:30:51.172Z,35.20
2022-12-03T13:33:54.976Z,43.33
2022-12-03T13:36:58.781Z,24.80
2022-12-03T13:40:12.685Z,47.20
2022-12-03T13:43:17.512Z,33.07
2022-12-03T13:46:20.459Z,32.10
2022-12-03T13:49:25.065Z,39.37
2022-12-03T13:52:28.054Z,30.30
2022-12-03T13:55:32.853Z,36.27
2022-12-03T13:58:37.726Z,30.50
2022-12-03T14:01:40.729Z,32.43
2022-12-03T14:04:43.551Z,22.73
2022-12-03T14:07:48.504Z,31.30
2022-12-03T14:10:58.612Z,36.37
2022-12-03T14:14:03.269Z,20.67
2022-12-03T14:17:06.621Z,21.60
2022-12-03T14:20:10.414Z,27.07
2022-12-03T14:23:13.410Z,41.37
2022-12-03T14:26:17.664Z,26.60
2022-12-03T14:29:20.484Z,34.70
2022-12-03T14:32:27.603Z,24.83
2022-12-03T14:35:30.626Z,46.70
2022-12-03T14:38:33.510Z,29.70
2022-12-03T14:41:55.091Z,36.87
2022-12-03T14:44:57.747Z,50.37
2022-12-03T14:48:00.457Z,43.07
2022-12-03T14:51:03.760Z,31.43
2022-12-03T14:54:06.637Z,28.07
2022-12-03T14:57:11.566Z,46.10
2022-12-03T15:00:15.601Z,38.07
2022-12-03T15:03:18.387Z,50.97
2022-12-03T15:06:21.110Z,27.13
2022-12-03T15:09:23.872Z,39.47
2022-12-03T15:12:28.826Z,38.83
2022-12-03T15:15:31.545Z,47.27
2022-12-03T15:18:34.523Z,42.43
2022-12-03T15:21:37.325Z,33.23
2022-12-03T15:24:40.448Z,35.63
2022-12-03T15:27:44.427Z,46.50
2022-12-03T15:30:47.062Z,44.23
2022-12-03T15:33:49.839Z,38.13
2022-12-03T15:36:53.096Z,31.77
2022-12-03T15:39:55.993Z,46.93
2022-12-03T15:43:00.273Z,51.90
2022-12-03T15:46:03.511Z,48.90
2022-12-03T15:49:06.176Z,47.60
2022-12-03T15:52:08.985Z,40.67
2022-12-03T15:55:11.742Z,31.37
2022-12-03T15:58:15.804Z,47.83
2022-12-03T16:01:18.687Z,27.37
2022-12-03T16:04:24.503Z,40.40
2022-12-03T16:07:30.944Z,55.13
2022-12-03T16:10:33.677Z,42.20
2022-12-03T16:13:37.767Z,40.67
2022-12-03T16:16:44.220Z,41.10
2022-12-03T16:19:47.254Z,37.20
2022-12-03T16:22:49.969Z,33.30
2022-12-03T16:25:52.665Z,36.70
2022-12-03T16:29:00.107Z,33.23
2022-12-03T16:32:03.812Z,38.40
2022-12-03T16:35:07.230Z,30.87
2022-12-03T16:38:09.942Z,41.23
2022-12-03T16:41:12.668Z,29.40
2022-12-03T16:44:31.931Z,36.53
2022-12-03T16:47:35.222Z,16.47
2022-12-03T16:50:38.105Z,33.30
2022-12-03T16:53:40.833Z,28.17
2022-12-03T16:56:44.519Z,25.13
2022-12-03T16:59:48.549Z,18.17
2022-12-03T17:02:53.852Z,34.53
2022-12-03T17:05:56.618Z,36.77
2022-12-03T17:08:59.335Z,39.20
2022-12-03T17:12:05.096Z,32.40
2022-12-03T17:15:10.036Z,40.57
2022-12-03T17:18:12.870Z,33.87
2022-12-03T17:21:15.606Z,37.70
2022-12-03T17:24:18.304Z,35.63
2022-12-03T17:27:23.198Z,39.57
2022-12-03T17:30:37.868Z,43.10
2022-12-03T17:33:42.957Z,28.73
2022-12-03T17:36:45.777Z,33.20
2022-12-03T17:39:48.540Z,31.73
2022-12-03T17:42:51.287Z,34.13
2022-12-03T17:45:55.366Z,37.37
2022-12-03T17:48:58.096Z,28.77
2022-12-03T17:52:00.955Z,26.40
2022-12-03T17:55:16.326Z,26.27
2022-12-03T17:58:24.191Z,30.87
2022-12-03T18:01:31.185Z,22.93
2022-12-03T18:04:34.111Z,26.37
2022-12-03T18:07:36.852Z,17.93
2022-12-03T18:10:39.802Z,23.07
2022-12-03T18:13:42.772Z,26.57
2022-12-03T18:16:46.939Z,23.47
2022-12-03T18:19:49.702Z,29.70
2022-12-03T18:22:52.817Z,35.43
2022-12-03T18:25:58.815Z,41.47
2022-12-03T18:29:02.173Z,35.27
2022-12-03T18:32:27.016Z,69.63
2022-12-03T18:35:31.244Z,33.27
2022-12-03T18:38:34.747Z,24.50
2022-12-03T18:41:38.149Z,26.43
2022-12-03T18:44:43.788Z,23.13
2022-12-03T18:47:52.058Z,19.93
2022-12-03T18:50:56.417Z,14.47
2022-12-03T18:54:02.205Z,18.00
2022-12-03T18:57:05.156Z,10.57
2022-12-03T19:00:13.412Z,18.70
2022-12-03T19:03:18.226Z,30.07
2022-12-03T19:06:24.443Z,27.30
2022-12-03T19:09:27.594Z,10.70
2022-12-03T19:12:33.509Z,29.37
2022-12-03T19:15:39.479Z,18.23
2022-12-03T19:18:44.054Z,18.57
2022-12-03T19:21:46.789Z,14.67
2022-12-03T19:24:49.578Z,16.07
2022-12-03T19:27:55.075Z,17.20
2022-12-03T19:30:59.566Z,14.17
2022-12-03T19:34:03.630Z,18.77
2022-12-03T19:37:07.171Z,21.33
2022-12-03T19:40:11.260Z,17.87
2022-12-03T19:43:14.020Z,21.13
2022-12-03T19:46:17.195Z,18.03
2022-12-03T19:49:22.305Z,16.67
2022-12-03T19:52:28.116Z,15.53
2022-12-03T19:55:30.803Z,16.07
2022-12-03T19:58:34.520Z,18.33
2022-12-03T20:01:40.384Z,17.20
2022-12-03T20:04:44.556Z,15.70
2022-12-03T20:07:47.429Z,19.43
2022-12-03T20:10:50.189Z,19.97
2022-12-03T20:13:54.915Z,12.60
2022-12-03T20:16:57.751Z,18.87
2022-12-03T20:20:02.195Z,17.03
2022-12-03T20:23:04.971Z,8.63
2022-12-03T20:26:09.360Z,16.87
2022-12-03T20:29:12.211Z,17.03
2022-12-03T20:32:15.171Z,31.40
2022-12-03T20:35:19.528Z,13.87
2022-12-03T20:38:23.009Z,14.53
2022-12-03T20:41:26.286Z,14.53
2022-12-03T20:44:31.394Z,19.97
2022-12-03T20:47:34.170Z,18.20
2022-12-03T20:50:40.198Z,16.50
2022-12-03T20:53:44.025Z,13.70
2022-12-03T20:56:46.735Z,14.37
2022-12-03T20:59:49.596Z,14.47
2022-12-03T21:02:53.103Z,15.23
2022-12-03T21:06:02.348Z,14.83
2022-12-03T21:09:07.254Z,16.40
2022-12-03T21:12:09.963Z,13.90
2022-12-03T21:15:12.692Z,14.20
2022-12-03T21:18:17.665Z,9.70
2022-12-03T21:21:22.256Z,15.33
2022-12-03T21:24:25.048Z,14.67
2022-12-03T21:27:27.754Z,13.00
2022-12-03T21:30:30.648Z,14.37
2022-12-03T21:33:34.248Z,11.20
2022-12-03T21:36:38.324Z,11.83
2022-12-03T21:39:41.077Z,13.23
2022-12-03T21:42:44.119Z,13.47
2022-12-03T21:45:47.159Z,14.47
2022-12-03T21:48:50.171Z,12.87
2022-12-03T21:51:56.733Z,15.77
2022-12-03T21:54:59.463Z,9.97
2022-12-03T21:58:02.936Z,13.70
2022-12-03T22:01:13.005Z,11.87
2022-12-03T22:04:16.237Z,16.03
2022-12-03T22:07:20.574Z,10.77
2022-12-03T22:10:23.505Z,18.53
2022-12-03T22:13:26.690Z,7.00
2022-12-03T22:16:29.521Z,7.00
2022-12-03T22:19:32.546Z,9.07
2022-12-03T22:22:37.288Z,14.20
2022-12-03T22:25:40.008Z,13.57
2022-12-03T22:28:44.718Z,14.37
2022-12-03T22:31:47.625Z,14.40
2022-12-03T22:34:50.625Z,14.70
2022-12-03T22:37:54.675Z,17.33
2022-12-03T22:40:57.665Z,14.50
2022-12-03T22:44:00.417Z,20.00
2022-12-03T22:47:04.122Z,19.00
2022-12-03T22:50:08.778Z,15.60
2022-12-03T22:53:13.250Z,16.03
2022-12-03T22:56:17.169Z,16.30
2022-12-03T22:59:20.254Z,17.00
2022-12-03T23:02:22.993Z,14.80
2022-12-03T23:05:25.867Z,13.47
2022-12-03T23:08:30.060Z,13.10
2022-12-03T23:11:33.361Z,12.93
2022-12-03T23:14:36.779Z,11.47
2022-12-03T23:17:39.917Z,16.47
2022-12-03T23:20:43.610Z,6.60
2022-12-03T23:23:48.066Z,16.03
2022-12-03T23:26:51.219Z,13.90
2022-12-03T23:29:54.371Z,18.17
2022-12-03T23:33:00.329Z,17.10
2022-12-03T23:36:06.463Z,22.60
2022-12-03T23:39:10.556Z,16.53
2022-12-03T23:42:13.335Z,16.37
2022-12-03T23:45:16.274Z,16.93
2022-12-03T23:48:19.020Z,20.40
2022-12-03T23:51:23.804Z,15.27
2022-12-03T23:54:27.927Z,16.17
2022-12-03T23:57:30.647Z,17.50
